createdAt,value
2022-12-04T00:02:10.675Z,-0.83
2022-12-04T00:04:37.321Z,-0.87
2022-12-04T00:07:04.041Z,-0.95
2022-12-04T00:09:30.572Z,-0.90
2022-12-04T00:11:57.125Z,-0.90
2022-12-04T00:14:24.071Z,-0.89
2022-12-04T00:16:50.719Z,-0.87
2022-12-04T00:19:17.727Z,-0.88
2022-12-04T00:21:45.341Z,-0.79
2022-12-04T00:24:12.738Z,-0.76
2022-12-04T00:26:39.305Z,-0.77
2022-12-04T00:29:05.973Z,-0.70
2022-12-04T00:31:32.953Z,-0.68
2022-12-04T00:34:00.780Z,-0.67
2022-12-04T00:36:29.516Z,-0.65
2022-12-04T00:38:56.359Z,-0.69
2022-12-04T00:41:25.209Z,-0.61
2022-12-04T00:43:52.444Z,-0.60
2022-12-04T00:46:19.311Z,-0.56
2022-12-04T00:48:46.316Z,-0.56
2022-12-04T00:51:18.477Z,-0.62
2022-12-04T00:53:45.369Z,-0.63
2022-12-04T00:56:18.570Z,-0.62
2022-12-04T00:58:45.812Z,-0.52
2022-12-04T01:01:15.305Z,-0.55
2022-12-04T01:03:43.406Z,-0.50
2022-12-04T01:06:31.887Z,-0.49
2022-12-04T01:09:00.795Z,-0.44
2022-12-04T01:11:29.399Z,-0.41
2022-12-04T01:13:56.667Z,-0.33
2022-12-04T01:16:26.189Z,-0.36
2022-12-04T01:18:52.801Z,-0.35
2022-12-04T01:21:19.463Z,-0.31
2022-12-04T01:23:46.155Z,-0.26
2022-12-04T01:26:14.059Z,-0.37
2022-12-04T01:28:40.666Z,-0.31
2022-12-04T01:31:13.683Z,-0.30
2022-12-04T01:33:41.321Z,-0.28
2022-12-04T01:36:11.195Z,-0.20
2022-12-04T01:38:38.245Z,-0.24
2022-12-04T01:41:05.848Z,-0.22
2022-12-04T01:43:35.747Z,-0.23
2022-12-04T01:46:03.204Z,-0.23
2022-12-04T01:48:35.090Z,-0.17
2022-12-04T01:51:17.838Z,-0.25
2022-12-04T01:53:51.066Z,-0.30
2022-12-04T01:56:19.678Z,-0.26
2022-12-04T01:58:51.377Z,-0.23
2022-12-04T02:01:18.708Z,-0.20
2022-12-04T02:03:45.386Z,-0.21
2022-12-04T02:06:12.060Z,-0.23
2022-12-04T02:08:39.111Z,-0.23
2022-12-04T02:11:18.188Z,-0.25
2022-12-04T02:14:15.423Z,-0.22
2022-12-04T02:16:55.403Z,-0.09
2022-12-04T02:19:45.153Z,-0.18
2022-12-04T02:22:29.126Z,-0.17
2022-12-04T02:25:11.237Z,-0.20
2022-12-04T02:27:42.453Z,-0.40
2022-12-04T02:30:13.346Z,-0.35
2022-12-04T02:32:42.918Z,-0.32
2022-12-04T02:35:17.003Z,-0.25
2022-12-04T02:37:47.822Z,-0.29
2022-12-04T02:40:23.246Z,-0.25
2022-12-04T02:42:52.369Z,-0.22
2022-12-04T02:45:27.063Z,-0.17
2022-12-04T02:47:55.114Z,-0.29
2022-12-04T02:50:24.290Z,-0.34
2022-12-04T02:53:17.704Z,-0.32
2022-12-04T02:55:50.839Z,-0.30
2022-12-04T02:58:25.602Z,-0.28
2022-12-04T03:00:54.558Z,-0.30
2022-12-04T03:03:25.468Z,-0.29
2022-12-04T03:05:59.574Z,-0.26
2022-12-04T03:08:34.324Z,-0.21
2022-12-04T03:11:01.802Z,-0.08
2022-12-04T03:13:38.433Z,-0.10
2022-12-04T03:16:13.314Z,-0.21
2022-12-04T03:18:44.190Z,-0.25
2022-12-04T03:21:16.398Z,-0.28
2022-12-04T03:23:48.866Z,-0.25
2022-12-04T03:26:42.260Z,-0.29
2022-12-04T03:29:21.293Z,-0.25
2022-12-04T03:32:00.850Z,-0.33
2022-12-04T03:34:48.606Z,-0.28
2022-12-04T03:37:19.926Z,-0.30
2022-12-04T03:39:57.305Z,-0.28
2022-12-04T03:42:35.912Z,-0.42
2022-12-04T03:45:17.283Z,-0.46
2022-12-04T03:47:54.347Z,-0.43
2022-12-04T03:50:32.780Z,-0.42
2022-12-04T03:53:16.696Z,-0.52
2022-12-04T03:56:03.576Z,-0.53
2022-12-04T03:58:32.938Z,-0.55
2022-12-04T04:01:04.024Z,-0.53
2022-12-04T04:03:37.048Z,-0.56
2022-12-04T04:06:10.813Z,-0.61
2022-12-04T04:08:39.881Z,-0.62
2022-12-04T04:11:28.921Z,-0.64
2022-12-04T04:14:21.068Z,-0.59
2022-12-04T04:17:13.932Z,-0.64
2022-12-04T04:20:03.126Z,-0.54
2022-12-04T04:22:51.630Z,-0.58
2022-12-04T04:25:25.910Z,-0.61
2022-12-04T04:27:58.250Z,-0.51
2022-12-04T04:30:26.302Z,-0.52
2022-12-04T04:33:16.195Z,-0.68
2022-12-04T04:36:06.659Z,-0.75
2022-12-04T04:39:02.154Z,-0.84
2022-12-04T04:41:50.055Z,-0.83
2022-12-04T04:44:46.536Z,-0.88
2022-12-04T04:47:20.104Z,-0.86
2022-12-04T04:49:49.278Z,-0.89
2022-12-04T04:52:20.211Z,-0.86
2022-12-04T04:54:47.561Z,-0.82
2022-12-04T04:57:14.190Z,-0.85
2022-12-04T04:59:40.752Z,-0.82
2022-12-04T05:02:07.510Z,-0.82
2022-12-04T05:04:34.102Z,-0.81
2022-12-04T05:07:00.622Z,-0.75
2022-12-04T05:09:27.169Z,-0.77
2022-12-04T05:11:53.732Z,-0.76
2022-12-04T05:14:20.292Z,-0.76
2022-12-04T05:16:46.806Z,-0.81
2022-12-04T05:19:31.713Z,-0.77
2022-12-04T05:21:58.407Z,-0.75
2022-12-04T05:24:24.949Z,-0.75
2022-12-04T05:26:51.500Z,-0.76
2022-12-04T05:29:18.033Z,-0.79
2022-12-04T05:31:44.627Z,-0.78
2022-12-04T05:34:11.216Z,-0.76
2022-12-04T05:36:37.754Z,-0.80
2022-12-04T05:39:04.461Z,-0.86
2022-12-04T05:41:31.024Z,-0.91
2022-12-04T05:43:57.600Z,-0.86
2022-12-04T05:46:24.242Z,-0.78
2022-12-04T05:48:50.873Z,-0.77
2022-12-04T05:51:17.511Z,-0.86
2022-12-04T05:53:44.128Z,-0.79
2022-12-04T05:56:11.200Z,-0.77
2022-12-04T05:58:38.827Z,-0.78
2022-12-04T06:01:10.950Z,-0.82
2022-12-04T06:03:37.608Z,-0.78
2022-12-04T06:06:04.670Z,-0.66
2022-12-04T06:08:32.299Z,-0.73
2022-12-04T06:10:58.890Z,-0.81
2022-12-04T06:13:25.448Z,-0.82
2022-12-04T06:15:52.054Z,-0.81
2022-12-04T06:18:18.585Z,-0.84
2022-12-04T06:20:45.203Z,-0.88
2022-12-04T06:23:11.817Z,-0.88
2022-12-04T06:25:38.420Z,-0.89
2022-12-04T06:28:05.036Z,-0.84
2022-12-04T06:30:33.849Z,-0.84
2022-12-04T06:33:00.375Z,-0.77
2022-12-04T06:35:26.900Z,-0.87
2022-12-04T06:37:53.437Z,-0.93
2022-12-04T06:40:19.983Z,-0.93
2022-12-04T06:42:46.499Z,-0.90
2022-12-04T06:45:13.136Z,-0.87
2022-12-04T06:47:39.683Z,-0.88
2022-12-04T06:50:07.085Z,-0.83
2022-12-04T06:52:34.280Z,-0.88
2022-12-04T06:55:00.875Z,-0.85
2022-12-04T06:57:27.476Z,-0.79
2022-12-04T06:59:54.266Z,-0.74
2022-12-04T07:02:21.082Z,-0.76
2022-12-04T07:04:47.641Z,-0.83
2022-12-04T07:07:14.240Z,-0.87
2022-12-04T07:09:40.784Z,-0.86
2022-12-04T07:12:07.455Z,-0.87
2022-12-04T07:14:34.077Z,-0.95
2022-12-04T07:17:00.686Z,-1.03
2022-12-04T07:19:27.268Z,-1.08
2022-12-04T07:21:53.888Z,-1.14
2022-12-04T07:24:20.545Z,-1.24
2022-12-04T07:26:47.308Z,-1.19
2022-12-04T07:29:13.991Z,-1.21
2022-12-04T07:31:40.837Z,-1.12
2022-12-04T07:34:07.978Z,-1.16
2022-12-04T07:36:34.517Z,-1.13
2022-12-04T07:39:01.229Z,-1.11
2022-12-04T07:41:27.777Z,-1.10
2022-12-04T07:43:54.717Z,-1.08
2022-12-04T07:46:24.505Z,-1.10
2022-12-04T07:48:51.210Z,-1.09
2022-12-04T07:51:23.036Z,-1.12
2022-12-04T07:53:51.538Z,-1.13
2022-12-04T07:56:19.170Z,-1.11
2022-12-04T07:58:46.496Z,-1.12
2022-12-04T08:01:19.053Z,-1.09
2022-12-04T08:03:49.048Z,-1.20
2022-12-04T08:06:18.230Z,-1.25
2022-12-04T08:08:45.177Z,-1.36
2022-12-04T08:11:14.642Z,-1.39
2022-12-04T08:13:41.387Z,-1.41
2022-12-04T08:16:10.040Z,-1.37
2022-12-04T08:18:36.625Z,-1.26
2022-12-04T08:21:14.763Z,-1.28
2022-12-04T08:23:43.064Z,-1.26
2022-12-04T08:26:10.611Z,-1.29
2022-12-04T08:28:38.251Z,-1.42
2022-12-04T08:31:07.651Z,-1.41
2022-12-04T08:33:34.633Z,-1.44
2022-12-04T08:36:01.566Z,-1.46
2022-12-04T08:38:28.140Z,-1.45
2022-12-04T08:40:54.676Z,-1.52
2022-12-04T08:43:21.251Z,-1.55
2022-12-04T08:46:05.396Z,-1.53
2022-12-04T08:48:32.533Z,-1.58
2022-12-04T08:50:59.620Z,-1.63
2022-12-04T08:53:27.549Z,-1.61
2022-12-04T08:55:54.105Z,-1.65
2022-12-04T08:58:20.670Z,-1.65
2022-12-04T09:00:47.750Z,-1.67
2022-12-04T09:03:16.829Z,-1.62
2022-12-04T09:05:45.899Z,-1.68
2022-12-04T09:08:14.092Z,-1.63
2022-12-04T09:10:41.405Z,-1.68
2022-12-04T09:13:08.298Z,-1.67
2022-12-04T09:15:38.594Z,-1.57
2022-12-04T09:18:05.228Z,-1.59
2022-12-04T09:20:31.769Z,-1.62
2022-12-04T09:23:05.422Z,-1.63
2022-12-04T09:25:36.416Z,-1.67
2022-12-04T09:28:03.110Z,-1.72
2022-12-04T09:30:29.645Z,-1.72
2022-12-04T09:32:56.326Z,-1.69
2022-12-04T09:35:22.883Z,-1.70
2022-12-04T09:37:49.391Z,-1.67
2022-12-04T09:40:30.698Z,-1.65
2022-12-04T09:43:06.713Z,-1.60
2022-12-04T09:45:46.863Z,-1.62
2022-12-04T09:48:16.696Z,-1.68
2022-12-04T09:50:45.231Z,-1.67
2022-12-04T09:53:27.614Z,-1.65
2022-12-04T09:56:12.648Z,-1.66
2022-12-04T09:58:45.382Z,-1.73
2022-12-04T10:01:29.767Z,-1.74
2022-12-04T10:04:01.182Z,-1.77
2022-12-04T10:06:44.155Z,-1.73
2022-12-04T10:09:29.749Z,-1.73
2022-12-04T10:12:24.666Z,-1.70
2022-12-04T10:15:03.764Z,-1.66
2022-12-04T10:18:00.903Z,-1.59
2022-12-04T10:21:15.128Z,-1.56
2022-12-04T10:24:00.939Z,-1.64
2022-12-04T10:26:36.772Z,-1.70
2022-12-04T10:29:08.133Z,-1.67
2022-12-04T10:31:37.758Z,-1.66
2022-12-04T10:34:40.022Z,-1.69
2022-12-04T10:37:14.663Z,-1.66
2022-12-04T10:40:09.896Z,-1.58
2022-12-04T10:42:38.476Z,-1.68
2022-12-04T10:45:06.319Z,-1.71
2022-12-04T10:47:34.323Z,-1.61
2022-12-04T10:50:13.038Z,-1.57
2022-12-04T10:52:39.574Z,-1.44
2022-12-04T10:55:06.473Z,-1.42
2022-12-04T10:57:39.515Z,-1.33
2022-12-04T11:00:30.864Z,-1.36
2022-12-04T11:03:03.306Z,-1.36
2022-12-04T11:05:44.116Z,-1.40
2022-12-04T11:08:26.467Z,-1.39
2022-12-04T11:11:06.310Z,-1.40
2022-12-04T11:13:33.161Z,-1.41
2022-12-04T11:15:59.818Z,-1.40
2022-12-04T11:18:31.966Z,-1.46
2022-12-04T11:21:03.121Z,-1.39
2022-12-04T11:23:33.696Z,-1.35
2022-12-04T11:26:05.912Z,-1.28
2022-12-04T11:28:41.615Z,-1.34
2022-12-04T11:31:15.478Z,-1.31
2022-12-04T11:33:48.219Z,-1.35
2022-12-04T11:36:41.963Z,-1.38
2022-12-04T11:39:18.905Z,-1.38
2022-12-04T11:41:45.528Z,-1.27
2022-12-04T11:44:30.331Z,-1.29
2022-12-04T11:46:59.333Z,-1.30
2022-12-04T11:49:28.130Z,-1.31
2022-12-04T11:52:38.531Z,-1.32
2022-12-04T11:55:17.868Z,-1.32
2022-12-04T11:57:54.361Z,-1.41
2022-12-04T12:00:22.800Z,-1.40
2022-12-04T12:03:10.783Z,-1.33
2022-12-04T12:05:55.734Z,-1.28
2022-12-04T12:08:43.256Z,-1.33
2022-12-04T12:11:30.871Z,-1.33
2022-12-04T12:14:21.299Z,-1.38
2022-12-04T12:17:21.787Z,-1.41
2022-12-04T12:20:11.069Z,-1.43
2022-12-04T12:23:01.924Z,-1.40
2022-12-04T12:26:06.459Z,-1.36
2022-12-04T12:29:00.404Z,-1.32
2022-12-04T12:31:45.559Z,-1.33
2022-12-04T12:34:18.770Z,-1.43
2022-12-04T12:36:49.647Z,-1.44
2022-12-04T12:39:24.960Z,-1.41
2022-12-04T12:41:59.123Z,-1.41
2022-12-04T12:44:34.755Z,-1.40
2022-12-04T12:47:09.381Z,-1.35
2022-12-04T12:49:46.236Z,-1.31
2022-12-04T12:52:33.319Z,-1.42
2022-12-04T12:55:14.255Z,-1.43
2022-12-04T12:57:45.290Z,-1.45
2022-12-04T13:00:18.107Z,-1.44
2022-12-04T13:02:50.478Z,-1.53
2022-12-04T13:05:23.357Z,-1.51
2022-12-04T13:08:11.503Z,-1.60
2022-12-04T13:10:49.387Z,-1.53
2022-12-04T13:13:28.984Z,-1.47
2022-12-04T13:16:03.208Z,-1.37
2022-12-04T13:18:41.044Z,-1.30
2022-12-04T13:21:14.042Z,-1.38
2022-12-04T13:23:49.511Z,-1.47
2022-12-04T13:26:18.762Z,-1.45
2022-12-04T13:28:56.547Z,-1.38
2022-12-04T13:32:23.866Z,-1.36
2022-12-04T13:35:05.568Z,-1.35
2022-12-04T13:37:47.908Z,-1.40
2022-12-04T13:40:20.117Z,-1.39
2022-12-04T13:42:46.784Z,-1.35
2022-12-04T13:45:27.335Z,-1.36
2022-12-04T13:48:00.388Z,-1.38
2022-12-04T13:50:35.511Z,-1.32
2022-12-04T13:53:02.237Z,-1.22
2022-12-04T13:55:37.917Z,-1.27
2022-12-04T13:58:31.550Z,-1.23
2022-12-04T14:01:04.502Z,-1.32
2022-12-04T14:03:48.448Z,-1.26
2022-12-04T14:06:50.584Z,-1.25
2022-12-04T14:09:25.920Z,-1.26
2022-12-04T14:11:57.886Z,-1.26
2022-12-04T14:14:26.700Z,-1.21
2022-12-04T14:16:54.264Z,-1.22
2022-12-04T14:19:32.464Z,-1.28
2022-12-04T14:21:59.266Z,-1.21
2022-12-04T14:24:37.763Z,-1.25
2022-12-04T14:27:30.141Z,-1.21
2022-12-04T14:29:58.766Z,-1.17
2022-12-04T14:32:30.903Z,-1.09
2022-12-04T14:34:58.539Z,-1.14
2022-12-04T14:37:31.064Z,-1.12
2022-12-04T14:39:59.387Z,-1.15
2022-12-04T14:42:39.060Z,-1.15
2022-12-04T14:45:20.329Z,-1.22
2022-12-04T14:48:08.340Z,-1.21
2022-12-04T14:51:04.609Z,-1.13
2022-12-04T14:53:53.051Z,-1.13
2022-12-04T14:56:26.369Z,-1.24
2022-12-04T14:58:53.267Z,-1.26
2022-12-04T15:01:29.510Z,-1.28
2022-12-04T15:04:01.271Z,-1.30
2022-12-04T15:06:30.962Z,-1.31
2022-12-04T15:09:22.067Z,-1.30
2022-12-04T15:12:10.681Z,-1.27
2022-12-04T15:14:42.604Z,-1.30
2022-12-04T15:17:11.359Z,-1.34
2022-12-04T15:19:38.852Z,-1.35
2022-12-04T15:22:11.723Z,-1.36
2022-12-04T15:24:39.027Z,-1.36
2022-12-04T15:27:07.067Z,-1.30
2022-12-04T15:29:38.137Z,-1.31
2022-12-04T15:32:12.010Z,-1.31
2022-12-04T15:34:43.277Z,-1.34
2022-12-04T15:37:21.629Z,-1.40
2022-12-04T15:39:52.266Z,-1.37
2022-12-04T15:42:22.178Z,-1.34
2022-12-04T15:45:01.753Z,-1.32
2022-12-04T15:47:31.397Z,-1.27
2022-12-04T15:50:16.244Z,-1.29
2022-12-04T15:52:57.682Z,-1.27
2022-12-04T15:55:25.978Z,-1.33
2022-12-04T15:58:00.405Z,-1.32
2022-12-04T16:00:34.103Z,-1.35
2022-12-04T16:03:01.194Z,-1.36
2022-12-04T16:05:36.563Z,-1.35
2022-12-04T16:08:29.195Z,-1.39
2022-12-04T16:11:02.225Z,-1.37
2022-12-04T16:13:37.463Z,-1.33
2022-12-04T16:16:07.103Z,-1.31
2022-12-04T16:18:34.193Z,-1.40
2022-12-04T16:21:00.987Z,-1.46
2022-12-04T16:23:27.839Z,-1.43
2022-12-04T16:25:54.734Z,-1.43
2022-12-04T16:28:21.447Z,-1.35
2022-12-04T16:30:51.214Z,-1.32
2022-12-04T16:33:17.895Z,-1.36
2022-12-04T16:35:44.671Z,-1.35
2022-12-04T16:38:16.654Z,-1.39
2022-12-04T16:40:45.285Z,-1.45
2022-12-04T16:43:14.908Z,-1.44
2022-12-04T16:45:48.968Z,-1.43
2022-12-04T16:48:15.713Z,-1.43
2022-12-04T16:50:44.304Z,-1.42
2022-12-04T16:53:19.060Z,-1.41
2022-12-04T16:55:48.530Z,-1.32
2022-12-04T16:58:16.067Z,-1.33
2022-12-04T17:00:44.836Z,-1.34
2022-12-04T17:03:21.982Z,-1.41
2022-12-04T17:05:48.605Z,-1.35
2022-12-04T17:08:15.265Z,-1.39
2022-12-04T17:10:41.843Z,-1.41
2022-12-04T17:13:08.391Z,-1.43
2022-12-04T17:15:35.040Z,-1.38
2022-12-04T17:18:04.811Z,-1.41
2022-12-04T17:20:35.784Z,-1.49
2022-12-04T17:23:02.319Z,-1.37
2022-12-04T17:25:28.874Z,-1.40
2022-12-04T17:27:55.451Z,-1.44
2022-12-04T17:30:21.979Z,-1.52
2022-12-04T17:32:49.284Z,-1.54
2022-12-04T17:35:16.071Z,-1.42
2022-12-04T17:37:42.646Z,-1.47
2022-12-04T17:40:10.739Z,-1.39
2022-12-04T17:42:37.296Z,-1.32
2022-12-04T17:45:04.843Z,-1.36
2022-12-04T17:47:31.450Z,-1.37
2022-12-04T17:49:57.980Z,-1.28
2022-12-04T17:52:24.561Z,-1.22
2022-12-04T17:54:52.147Z,-1.29
2022-12-04T17:57:19.243Z,-1.20
2022-12-04T17:59:45.843Z,-1.30
2022-12-04T18:02:13.169Z,-1.27
2022-12-04T18:04:39.766Z,-1.32
2022-12-04T18:07:06.875Z,-1.33
2022-12-04T18:09:33.872Z,-1.33
2022-12-04T18:12:01.673Z,-1.20
2022-12-04T18:14:29.367Z,-0.95
2022-12-04T18:16:57.614Z,-1.20
2022-12-04T18:19:27.162Z,-1.40
2022-12-04T18:21:54.983Z,-1.45
2022-12-04T18:24:22.864Z,-1.49
2022-12-04T18:26:51.014Z,-1.59
2022-12-04T18:29:20.884Z,-1.60
2022-12-04T18:31:47.964Z,-1.54
2022-12-04T18:34:15.060Z,-1.69
2022-12-04T18:36:42.282Z,-1.68
2022-12-04T18:39:15.003Z,-1.73
2022-12-04T18:41:41.819Z,-1.70
2022-12-04T18:44:08.645Z,-1.64
2022-12-04T18:46:35.667Z,-1.51
2022-12-04T18:49:02.471Z,-1.41
2022-12-04T18:51:30.226Z,-1.32
2022-12-04T18:54:02.804Z,-1.28
2022-12-04T18:56:30.207Z,-1.24
2022-12-04T18:59:21.196Z,-1.21
2022-12-04T19:01:50.323Z,-1.13
2022-12-04T19:04:19.460Z,-1.29
2022-12-04T19:06:50.335Z,-1.17
2022-12-04T19:09:35.477Z,-1.21
2022-12-04T19:12:08.722Z,-1.28
2022-12-04T19:14:35.423Z,-1.28
2022-12-04T19:17:02.014Z,-1.23
2022-12-04T19:19:31.584Z,-1.21
2022-12-04T19:21:59.136Z,-1.20
2022-12-04T19:24:25.760Z,-1.22
2022-12-04T19:26:53.810Z,-1.29
2022-12-04T19:29:20.361Z,-1.22
2022-12-04T19:31:47.009Z,-1.25
2022-12-04T19:34:13.738Z,-1.26
2022-12-04T19:36:41.270Z,-1.23
2022-12-04T19:39:08.058Z,-1.25
2022-12-04T19:41:35.314Z,-1.43
2022-12-04T19:44:07.827Z,-1.47
2022-12-04T19:46:41.352Z,-1.52
2022-12-04T19:49:08.256Z,-1.59
2022-12-04T19:51:38.155Z,-1.58
2022-12-04T19:54:05.978Z,-1.62
2022-12-04T19:56:34.415Z,-1.66
2022-12-04T19:59:03.671Z,-1.75
2022-12-04T20:01:32.347Z,-1.78
2022-12-04T20:04:04.481Z,-1.83
2022-12-04T20:06:35.219Z,-1.88
2022-12-04T20:09:05.158Z,-1.88
2022-12-04T20:11:32.747Z,-1.92
2022-12-04T20:14:03.909Z,-1.98
2022-12-04T20:16:32.431Z,-1.98
2022-12-04T20:18:59.681Z,-2.00
2022-12-04T20:21:30.351Z,-1.97
2022-12-04T20:24:00.060Z,-1.96
2022-12-04T20:26:31.478Z,-2.02
2022-12-04T20:28:59.690Z,-2.02
2022-12-04T20:31:34.333Z,-1.97
2022-12-04T20:34:03.492Z,-2.04
2022-12-04T20:36:31.356Z,-2.02
2022-12-04T20:38:59.294Z,-1.94
2022-12-04T20:41:27.846Z,-1.97
2022-12-04T20:43:55.513Z,-2.00
2022-12-04T20:46:25.694Z,-2.02
2022-12-04T20:48:53.641Z,-2.02
2022-12-04T20:51:40.400Z,-2.04
2022-12-04T20:54:08.114Z,-2.06
2022-12-04T20:56:36.959Z,-2.08
2022-12-04T20:59:07.628Z,-2.09
2022-12-04T21:01:34.988Z,-2.08
2022-12-04T21:04:02.313Z,-2.08
2022-12-04T21:06:34.789Z,-2.09
2022-12-04T21:09:06.715Z,-2.05
2022-12-04T21:11:36.935Z,-2.09
2022-12-04T21:14:24.957Z,-2.07
2022-12-04T21:16:51.838Z,-2.08
2022-12-04T21:19:20.773Z,-2.07
2022-12-04T21:21:47.384Z,-2.01
2022-12-04T21:24:16.289Z,-1.99
2022-12-04T21:26:43.373Z,-1.94
2022-12-04T21:29:10.171Z,-1.90
2022-12-04T21:31:37.369Z,-1.85
2022-12-04T21:34:07.014Z,-1.82
2022-12-04T21:36:34.212Z,-1.80
2022-12-04T21:39:00.827Z,-1.70
2022-12-04T21:41:46.289Z,-1.51
2022-12-04T21:44:17.461Z,-1.58
2022-12-04T21:46:45.202Z,-1.57
2022-12-04T21:49:12.348Z,-1.47
2022-12-04T21:54:27.209Z,-1.35
2022-12-04T21:56:54.497Z,-1.28
2022-12-04T21:59:21.001Z,-1.19
2022-12-04T22:01:47.616Z,-1.20
2022-12-04T22:04:14.316Z,-1.22
2022-12-04T22:06:42.121Z,-1.14
2022-12-04T22:09:11.098Z,-1.12
2022-12-04T22:11:41.344Z,-1.09
2022-12-04T22:14:08.845Z,-1.02
2022-12-04T22:16:41.233Z,-1.01
2022-12-04T22:19:08.572Z,-0.95
2022-12-04T22:21:35.167Z,-0.92
2022-12-04T22:24:03.553Z,-0.86
2022-12-04T22:26:31.613Z,-0.92
2022-12-04T22:28:58.422Z,-0.89
2022-12-04T22:31:26.939Z,-0.84
2022-12-04T22:33:55.466Z,-0.81
2022-12-04T22:36:26.267Z,-0.74
2022-12-04T22:39:08.842Z,-0.68
2022-12-04T22:41:36.225Z,-0.71
2022-12-04T22:44:02.867Z,-0.70
2022-12-04T22:46:29.716Z,-0.75
2022-12-04T22:48:56.322Z,-0.76
2022-12-04T22:51:22.969Z,-0.71
2022-12-04T22:53:52.337Z,-0.69
2022-12-04T22:56:29.671Z,-0.78
2022-12-04T22:58:57.951Z,-0.78
2022-12-04T23:01:26.019Z,-0.71
2022-12-04T23:03:53.732Z,-0.66
2022-12-04T23:06:22.115Z,-0.67
2022-12-04T23:08:49.497Z,-0.68
2022-12-04T23:11:21.169Z,-0.67
2022-12-04T23:13:52.505Z,-0.68
2022-12-04T23:16:20.747Z,-0.69
2022-12-04T23:18:48.313Z,-0.71
2022-12-04T23:21:16.398Z,-0.76
2022-12-04T23:23:44.381Z,-0.83
2022-12-04T23:26:15.012Z,-0.90
2022-12-04T23:28:42.075Z,-0.93
2022-12-04T23:31:09.006Z,-0.91
2022-12-04T23:33:35.693Z,-0.98
2022-12-04T23:36:03.668Z,-0.93
2022-12-04T23:38:30.490Z,-0.88
2022-12-04T23:41:26.778Z,-0.80
2022-12-04T23:43:55.001Z,-0.75
2022-12-04T23:46:25.875Z,-0.75
2022-12-04T23:48:52.483Z,-0.67
2022-12-04T23:51:19.995Z,-0.63
2022-12-04T23:53:47.845Z,-0.66
2022-12-04T23:56:20.986Z,-0.69
2022-12-04T23:58:49.288Z,-0.68
